sensor_id;sensor_type;location;lat;lon;timestamp;P1;durP1;ratioP1;P2;durP2;ratioP2
50433;SDS011;36361;38.954;-9.002;2022-07-29T00:00:47;2.97;;;0.80;;
50433;SDS011;36361;38.954;-9.002;2022-07-29T00:01:47;2.72;;;0.57;;
50433;SDS011;36361;38.954;-9.002;2022-07-29T00:02:49;1.58;;;0.50;;
50433;SDS011;36361;38.954;-9.002;2022-07-29T00:03:50;3.60;;;0.60;;
50433;SDS011;36361;38.954;-9.002;2022-07-29T00:04:50;1.25;;;0.38;;
50433;SDS011;36361;38.954;-9.002;2022-07-29T00:05:51;1.42;;;0.40;;
50433;SDS011;36361;38.954;-9.002;2022-07-29T00:06:53;1.25;;;0.30;;
50433;SDS011;36361;38.954;-9.002;2022-07-29T00:07:56;1.90;;;0.60;;
50433;SDS011;36361;38.954;-9.002;2022-07-29T00:09:00;1.75;;;0.50;;
50433;SDS011;36361;38.954;-9.002;2022-07-29T00:10:00;3.45;;;0.55;;
50433;SDS011;36361;38.954;-9.002;2022-07-29T00:11:01;2.20;;;0.40;;
50433;SDS011;36361;38.954;-9.002;2022-07-29T00:12:05;1.50;;;0.30;;
50433;SDS011;36361;38.954;-9.002;2022-07-29T00:13:09;3.22;;;1.10;;
50433;SDS011;36361;38.954;-9.002;2022-07-29T00:14:10;2.03;;;0.38;;
50433;SDS011;36361;38.954;-9.002;2022-07-29T00:15:11;2.55;;;0.50;;
50433;SDS011;36361;38.954;-9.002;2022-07-29T00:16:18;4.35;;;0.60;;
50433;SDS011;36361;38.954;-9.002;2022-07-29T00:17:18;1.52;;;0.38;;
50433;SDS011;36361;38.954;-9.002;2022-07-29T00:18:19;3.38;;;0.40;;
50433;SDS011;36361;38.954;-9.002;2022-07-29T00:19:20;2.15;;;0.60;;
50433;SDS011;36361;38.954;-9.002;2022-07-29T00:20:21;3.17;;;0.35;;
50433;SDS011;36361;38.954;-9.002;2022-07-29T00:21:21;2.05;;;0.50;;
50433;SDS011;36361;38.954;-9.002;2022-07-29T00:22:22;3.22;;;0.57;;
50433;SDS011;36361;38.954;-9.002;2022-07-29T00:23:23;1.10;;;0.40;;
50433;SDS011;36361;38.954;-9.002;2022-07-29T00:24:23;2.75;;;0.45;;
50433;SDS011;36361;38.954;-9.002;2022-07-29T00:25:24;1.40;;;0.40;;
50433;SDS011;36361;38.954;-9.002;2022-07-29T00:26:25;1.83;;;0.50;;
50433;SDS011;36361;38.954;-9.002;2022-07-29T00:27:27;3.20;;;0.40;;
50433;SDS011;36361;38.954;-9.002;2022-07-29T00:28:28;4.30;;;0.57;;
50433;SDS011;36361;38.954;-9.002;2022-07-29T00:29:29;2.15;;;0.63;;
50433;SDS011;36361;38.954;-9.002;2022-07-29T00:30:32;2.75;;;0.57;;
50433;SDS011;36361;38.954;-9.002;2022-07-29T00:31:33;2.75;;;0.50;;
50433;SDS011;36361;38.954;-9.002;2022-07-29T00:32:34;2.28;;;0.50;;
50433;SDS011;36361;38.954;-9.002;2022-07-29T00:33:35;1.75;;;0.43;;
50433;SDS011;36361;38.954;-9.002;2022-07-29T00:34:36;4.25;;;0.93;;
50433;SDS011;36361;38.954;-9.002;2022-07-29T00:35:55;3.50;;;0.60;;
50433;SDS011;36361;38.954;-9.002;2022-07-29T00:36:56;2.40;;;0.63;;
50433;SDS011;36361;38.954;-9.002;2022-07-29T00:37:57;2.15;;;0.50;;
50433;SDS011;36361;38.954;-9.002;2022-07-29T00:38:58;3.00;;;0.52;;
50433;SDS011;36361;38.954;-9.002;2022-07-29T00:39:59;4.13;;;0.68;;
50433;SDS011;36361;38.954;-9.002;2022-07-29T00:40:59;2.92;;;0.40;;
50433;SDS011;36361;38.954;-9.002;2022-07-29T00:42:02;3.53;;;0.60;;
50433;SDS011;36361;38.954;-9.002;2022-07-29T00:43:04;1.63;;;0.65;;
50433;SDS011;36361;38.954;-9.002;2022-07-29T00:44:05;2.88;;;0.52;;
50433;SDS011;36361;38.954;-9.002;2022-07-29T00:45:06;2.78;;;0.50;;
50433;SDS011;36361;38.954;-9.002;2022-07-29T00:46:07;2.58;;;0.35;;
50433;SDS011;36361;38.954;-9.002;2022-07-29T00:47:08;3.55;;;0.60;;
50433;SDS011;36361;38.954;-9.002;2022-07-29T00:48:10;4.80;;;0.75;;
50433;SDS011;36361;38.954;-9.002;2022-07-29T00:49:11;2.10;;;1.10;;
50433;SDS011;36361;38.954;-9.002;2022-07-29T00:50:12;4.45;;;0.60;;
50433;SDS011;36361;38.954;-9.002;2022-07-29T00:51:14;1.92;;;0.50;;
50433;SDS011;36361;38.954;-9.002;2022-07-29T00:52:15;1.90;;;0.30;;
50433;SDS011;36361;38.954;-9.002;2022-07-29T00:53:16;2.30;;;0.40;;
50433;SDS011;36361;38.954;-9.002;2022-07-29T00:54:17;2.67;;;1.35;;
50433;SDS011;36361;38.954;-9.002;2022-07-29T00:55:17;4.95;;;0.60;;
50433;SDS011;36361;38.954;-9.002;2022-07-29T00:56:18;3.50;;;0.60;;
50433;SDS011;36361;38.954;-9.002;2022-07-29T00:57:19;1.73;;;0.70;;
50433;SDS011;36361;38.954;-9.002;2022-07-29T00:58:20;1.33;;;0.47;;
50433;SDS011;36361;38.954;-9.002;2022-07-29T00:59:21;3.95;;;0.80;;
50433;SDS011;36361;38.954;-9.002;2022-07-29T01:00:23;3.97;;;0.60;;
50433;SDS011;36361;38.954;-9.002;2022-07-29T01:01:25;4.15;;;0.52;;
50433;SDS011;36361;38.954;-9.002;2022-07-29T01:02:26;1.63;;;0.47;;
50433;SDS011;36361;38.954;-9.002;2022-07-29T01:03:27;3.28;;;0.73;;
50433;SDS011;36361;38.954;-9.002;2022-07-29T01:04:27;1.58;;;0.63;;
50433;SDS011;36361;38.954;-9.002;2022-07-29T01:05:29;3.67;;;1.00;;
50433;SDS011;36361;38.954;-9.002;2022-07-29T01:06:31;2.25;;;0.50;;
50433;SDS011;36361;38.954;-9.002;2022-07-29T01:07:33;2.95;;;0.70;;
50433;SDS011;36361;38.954;-9.002;2022-07-29T01:08:37;3.05;;;1.15;;
50433;SDS011;36361;38.954;-9.002;2022-07-29T01:09:38;3.20;;;1.00;;
50433;SDS011;36361;38.954;-9.002;2022-07-29T01:10:40;4.43;;;0.90;;
50433;SDS011;36361;38.954;-9.002;2022-07-29T01:11:43;6.32;;;1.63;;
50433;SDS011;36361;38.954;-9.002;2022-07-29T01:12:49;3.85;;;0.70;;
50433;SDS011;36361;38.954;-9.002;2022-07-29T01:13:51;4.70;;;1.20;;
50433;SDS011;36361;38.954;-9.002;2022-07-29T01:14:53;3.22;;;1.00;;
50433;SDS011;36361;38.954;-9.002;2022-07-29T01:15:56;3.50;;;1.50;;
50433;SDS011;36361;38.954;-9.002;2022-07-29T01:17:14;2.28;;;0.68;;
50433;SDS011;36361;38.954;-9.002;2022-07-29T01:18:40;3.20;;;1.00;;
50433;SDS011;36361;38.954;-9.002;2022-07-29T01:21:16;6.38;;;1.23;;
50433;SDS011;36361;38.954;-9.002;2022-07-29T01:22:44;3.35;;;0.90;;
50433;SDS011;36361;38.954;-9.002;2022-07-29T01:29:49;2.95;;;0.95;;
50433;SDS011;36361;38.954;-9.002;2022-07-29T01:30:58;6.72;;;1.10;;
50433;SDS011;36361;38.954;-9.002;2022-07-29T01:32:10;4.75;;;1.27;;
50433;SDS011;36361;38.954;-9.002;2022-07-29T01:33:15;4.57;;;1.73;;
50433;SDS011;36361;38.954;-9.002;2022-07-29T01:34:40;4.63;;;1.63;;
50433;SDS011;36361;38.954;-9.002;2022-07-29T01:35:46;6.25;;;1.10;;
50433;SDS011;36361;38.954;-9.002;2022-07-29T01:36:48;3.75;;;0.95;;
50433;SDS011;36361;38.954;-9.002;2022-07-29T01:39:04;3.97;;;1.17;;
50433;SDS011;36361;38.954;-9.002;2022-07-29T01:40:31;3.40;;;1.63;;
50433;SDS011;36361;38.954;-9.002;2022-07-29T01:41:49;3.97;;;1.30;;
50433;SDS011;36361;38.954;-9.002;2022-07-29T01:42:57;4.32;;;1.60;;
50433;SDS011;36361;38.954;-9.002;2022-07-29T01:44:45;4.65;;;1.40;;
50433;SDS011;36361;38.954;-9.002;2022-07-29T01:46:44;6.13;;;1.50;;
50433;SDS011;36361;38.954;-9.002;2022-07-29T01:47:56;3.47;;;1.17;;
50433;SDS011;36361;38.954;-9.002;2022-07-29T01:50:08;5.22;;;1.48;;
50433;SDS011;36361;38.954;-9.002;2022-07-29T01:51:14;3.55;;;1.30;;
50433;SDS011;36361;38.954;-9.002;2022-07-29T01:52:19;3.38;;;1.20;;
50433;SDS011;36361;38.954;-9.002;2022-07-29T01:53:29;5.30;;;1.50;;
50433;SDS011;36361;38.954;-9.002;2022-07-29T01:54:41;3.00;;;1.40;;
50433;SDS011;36361;38.954;-9.002;2022-07-29T01:55:45;3.67;;;1.45;;
50433;SDS011;36361;38.954;-9.002;2022-07-29T01:56:49;4.22;;;1.08;;
50433;SDS011;36361;38.954;-9.002;2022-07-29T01:57:52;5.80;;;1.85;;
50433;SDS011;36361;38.954;-9.002;2022-07-29T01:58:54;4.85;;;1.27;;
50433;SDS011;36361;38.954;-9.002;2022-07-29T01:59:56;4.78;;;1.30;;
50433;SDS011;36361;38.954;-9.002;2022-07-29T02:00:58;3.83;;;1.17;;
50433;SDS011;36361;38.954;-9.002;2022-07-29T02:02:01;4.00;;;1.50;;
50433;SDS011;36361;38.954;-9.002;2022-07-29T02:03:07;4.82;;;1.38;;
50433;SDS011;36361;38.954;-9.002;2022-07-29T02:04:09;4.57;;;1.58;;
50433;SDS011;36361;38.954;-9.002;2022-07-29T02:05:14;5.47;;;1.65;;
50433;SDS011;36361;38.954;-9.002;2022-07-29T02:06:17;3.13;;;1.05;;
50433;SDS011;36361;38.954;-9.002;2022-07-29T02:07:22;3.75;;;1.30;;
50433;SDS011;36361;38.954;-9.002;2022-07-29T02:08:25;4.20;;;1.33;;
50433;SDS011;36361;38.954;-9.002;2022-07-29T02:09:28;4.72;;;1.63;;
50433;SDS011;36361;38.954;-9.002;2022-07-29T02:10:31;3.25;;;1.17;;
50433;SDS011;36361;38.954;-9.002;2022-07-29T02:11:37;2.45;;;0.68;;
50433;SDS011;36361;38.954;-9.002;2022-07-29T02:12:40;4.72;;;1.40;;
50433;SDS011;36361;38.954;-9.002;2022-07-29T02:13:43;6.95;;;1.90;;
50433;SDS011;36361;38.954;-9.002;2022-07-29T02:14:47;4.68;;;1.55;;
50433;SDS011;36361;38.954;-9.002;2022-07-29T02:15:53;4.88;;;1.25;;
50433;SDS011;36361;38.954;-9.002;2022-07-29T02:16:57;5.80;;;1.58;;
50433;SDS011;36361;38.954;-9.002;2022-07-29T02:18:01;4.15;;;1.40;;
50433;SDS011;36361;38.954;-9.002;2022-07-29T02:19:07;3.67;;;1.27;;
50433;SDS011;36361;38.954;-9.002;2022-07-29T02:20:09;5.45;;;1.52;;
50433;SDS011;36361;38.954;-9.002;2022-07-29T02:21:11;4.93;;;1.48;;
50433;SDS011;36361;38.954;-9.002;2022-07-29T02:22:13;4.25;;;1.38;;
50433;SDS011;36361;38.954;-9.002;2022-07-29T02:23:18;4.03;;;1.45;;
50433;SDS011;36361;38.954;-9.002;2022-07-29T02:24:22;4.80;;;1.50;;
50433;SDS011;36361;38.954;-9.002;2022-07-29T02:25:24;6.40;;;1.58;;
50433;SDS011;36361;38.954;-9.002;2022-07-29T02:26:26;6.28;;;2.22;;
50433;SDS011;36361;38.954;-9.002;2022-07-29T02:27:34;5.03;;;1.35;;
50433;SDS011;36361;38.954;-9.002;2022-07-29T02:28:35;4.57;;;1.13;;
50433;SDS011;36361;38.954;-9.002;2022-07-29T02:29:36;5.45;;;1.48;;
50433;SDS011;36361;38.954;-9.002;2022-07-29T02:30:40;4.28;;;1.60;;
50433;SDS011;36361;38.954;-9.002;2022-07-29T02:31:43;5.85;;;1.60;;
50433;SDS011;36361;38.954;-9.002;2022-07-29T02:32:53;5.75;;;2.00;;
50433;SDS011;36361;38.954;-9.002;2022-07-29T02:33:55;6.93;;;1.70;;
50433;SDS011;36361;38.954;-9.002;2022-07-29T02:34:57;5.72;;;2.00;;
50433;SDS011;36361;38.954;-9.002;2022-07-29T02:36:00;3.42;;;1.15;;
50433;SDS011;36361;38.954;-9.002;2022-07-29T02:37:03;3.45;;;1.40;;
50433;SDS011;36361;38.954;-9.002;2022-07-29T02:38:05;5.03;;;1.75;;
50433;SDS011;36361;38.954;-9.002;2022-07-29T02:39:25;2.80;;;1.42;;
50433;SDS011;36361;38.954;-9.002;2022-07-29T02:40:28;6.70;;;1.75;;
50433;SDS011;36361;38.954;-9.002;2022-07-29T02:42:30;3.15;;;1.70;;
50433;SDS011;36361;38.954;-9.002;2022-07-29T02:43:39;3.47;;;2.00;;
50433;SDS011;36361;38.954;-9.002;2022-07-29T02:44:43;5.30;;;2.42;;
50433;SDS011;36361;38.954;-9.002;2022-07-29T02:45:45;4.93;;;1.48;;
50433;SDS011;36361;38.954;-9.002;2022-07-29T02:46:51;5.47;;;1.42;;
50433;SDS011;36361;38.954;-9.002;2022-07-29T02:47:58;4.22;;;1.50;;
50433;SDS011;36361;38.954;-9.002;2022-07-29T02:50:14;5.80;;;1.95;;
50433;SDS011;36361;38.954;-9.002;2022-07-29T02:51:30;5.05;;;1.55;;
50433;SDS011;36361;38.954;-9.002;2022-07-29T02:52:54;4.35;;;1.50;;
50433;SDS011;36361;38.954;-9.002;2022-07-29T02:54:10;3.90;;;1.73;;
50433;SDS011;36361;38.954;-9.002;2022-07-29T02:56:37;5.85;;;1.80;;
50433;SDS011;36361;38.954;-9.002;2022-07-29T02:57:48;4.05;;;1.63;;
50433;SDS011;36361;38.954;-9.002;2022-07-29T02:58:56;3.85;;;1.50;;
50433;SDS011;36361;38.954;-9.002;2022-07-29T03:00:10;5.95;;;2.17;;
50433;SDS011;36361;38.954;-9.002;2022-07-29T03:01:22;5.53;;;1.85;;
50433;SDS011;36361;38.954;-9.002;2022-07-29T03:02:25;5.18;;;1.52;;
50433;SDS011;36361;38.954;-9.002;2022-07-29T03:03:28;5.43;;;1.65;;
50433;SDS011;36361;38.954;-9.002;2022-07-29T03:04:32;5.47;;;1.50;;
50433;SDS011;36361;38.954;-9.002;2022-07-29T03:05:34;8.43;;;1.80;;
50433;SDS011;36361;38.954;-9.002;2022-07-29T03:06:38;2.83;;;1.67;;
50433;SDS011;36361;38.954;-9.002;2022-07-29T03:07:43;5.70;;;2.08;;
50433;SDS011;36361;38.954;-9.002;2022-07-29T03:08:51;6.07;;;1.60;;
50433;SDS011;36361;38.954;-9.002;2022-07-29T03:09:54;5.10;;;1.88;;
50433;SDS011;36361;38.954;-9.002;2022-07-29T03:10:59;5.70;;;2.00;;
50433;SDS011;36361;38.954;-9.002;2022-07-29T03:12:02;4.32;;;2.00;;
50433;SDS011;36361;38.954;-9.002;2022-07-29T03:13:04;7.40;;;1.80;;
50433;SDS011;36361;38.954;-9.002;2022-07-29T03:14:05;4.70;;;2.00;;
50433;SDS011;36361;38.954;-9.002;2022-07-29T03:15:07;2.78;;;1.42;;
50433;SDS011;36361;38.954;-9.002;2022-07-29T03:16:09;4.32;;;1.90;;
50433;SDS011;36361;38.954;-9.002;2022-07-29T03:17:11;5.22;;;2.22;;
50433;SDS011;36361;38.954;-9.002;2022-07-29T03:18:12;7.53;;;2.17;;
50433;SDS011;36361;38.954;-9.002;2022-07-29T03:19:14;6.93;;;2.58;;
50433;SDS011;36361;38.954;-9.002;2022-07-29T03:20:15;5.57;;;1.73;;
50433;SDS011;36361;38.954;-9.002;2022-07-29T03:21:16;5.72;;;1.80;;
50433;SDS011;36361;38.954;-9.002;2022-07-29T03:22:17;3.50;;;1.80;;
50433;SDS011;36361;38.954;-9.002;2022-07-29T03:23:18;4.88;;;2.15;;
50433;SDS011;36361;38.954;-9.002;2022-07-29T03:25:48;9.15;;;2.38;;
50433;SDS011;36361;38.954;-9.002;2022-07-29T03:26:49;4.70;;;1.90;;
50433;SDS011;36361;38.954;-9.002;2022-07-29T03:27:50;4.50;;;2.30;;
50433;SDS011;36361;38.954;-9.002;2022-07-29T03:28:51;4.25;;;2.10;;
50433;SDS011;36361;38.954;-9.002;2022-07-29T03:29:52;6.55;;;2.30;;
50433;SDS011;36361;38.954;-9.002;2022-07-29T03:30:53;13.43;;;2.50;;
50433;SDS011;36361;38.954;-9.002;2022-07-29T03:31:54;7.28;;;2.42;;
50433;SDS011;36361;38.954;-9.002;2022-07-29T03:32:55;4.13;;;1.90;;
50433;SDS011;36361;38.954;-9.002;2022-07-29T03:33:56;6.57;;;2.08;;
50433;SDS011;36361;38.954;-9.002;2022-07-29T03:34:57;7.95;;;2.13;;
50433;SDS011;36361;38.954;-9.002;2022-07-29T03:35:58;6.50;;;2.47;;
50433;SDS011;36361;38.954;-9.002;2022-07-29T03:36:59;5.80;;;2.10;;
50433;SDS011;36361;38.954;-9.002;2022-07-29T03:38:00;5.78;;;2.10;;
50433;SDS011;36361;38.954;-9.002;2022-07-29T03:39:01;6.38;;;1.95;;
50433;SDS011;36361;38.954;-9.002;2022-07-29T03:40:05;3.75;;;1.70;;
50433;SDS011;36361;38.954;-9.002;2022-07-29T03:41:09;7.97;;;2.92;;
50433;SDS011;36361;38.954;-9.002;2022-07-29T03:42:12;5.15;;;2.35;;
50433;SDS011;36361;38.954;-9.002;2022-07-29T03:43:17;5.00;;;2.15;;
50433;SDS011;36361;38.954;-9.002;2022-07-29T03:44:18;5.97;;;2.58;;
50433;SDS011;36361;38.954;-9.002;2022-07-29T03:45:22;5.72;;;2.20;;
50433;SDS011;36361;38.954;-9.002;2022-07-29T03:46:25;10.13;;;2.45;;
50433;SDS011;36361;38.954;-9.002;2022-07-29T03:47:29;2.90;;;1.63;;
50433;SDS011;36361;38.954;-9.002;2022-07-29T03:48:32;4.80;;;2.42;;
50433;SDS011;36361;38.954;-9.002;2022-07-29T03:49:35;5.70;;;2.13;;
50433;SDS011;36361;38.954;-9.002;2022-07-29T03:50:38;6.93;;;2.17;;
50433;SDS011;36361;38.954;-9.002;2022-07-29T03:52:57;3.28;;;1.75;;
50433;SDS011;36361;38.954;-9.002;2022-07-29T03:53:59;5.63;;;2.10;;
50433;SDS011;36361;38.954;-9.002;2022-07-29T03:55:04;6.70;;;2.65;;
50433;SDS011;36361;38.954;-9.002;2022-07-29T03:56:06;4.95;;;2.08;;
50433;SDS011;36361;38.954;-9.002;2022-07-29T03:57:11;6.75;;;2.38;;
50433;SDS011;36361;38.954;-9.002;2022-07-29T03:58:16;4.97;;;2.47;;
50433;SDS011;36361;38.954;-9.002;2022-07-29T03:59:19;6.97;;;2.45;;
50433;SDS011;36361;38.954;-9.002;2022-07-29T04:00:21;10.05;;;3.53;;
50433;SDS011;36361;38.954;-9.002;2022-07-29T04:01:24;5.63;;;2.15;;
50433;SDS011;36361;38.954;-9.002;2022-07-29T04:02:26;5.78;;;2.17;;
50433;SDS011;36361;38.954;-9.002;2022-07-29T04:03:27;4.80;;;1.90;;
50433;SDS011;36361;38.954;-9.002;2022-07-29T04:04:28;4.22;;;2.13;;
50433;SDS011;36361;38.954;-9.002;2022-07-29T04:05:29;6.88;;;1.95;;
50433;SDS011;36361;38.954;-9.002;2022-07-29T04:06:37;7.93;;;2.30;;
50433;SDS011;36361;38.954;-9.002;2022-07-29T04:07:39;6.07;;;2.15;;
50433;SDS011;36361;38.954;-9.002;2022-07-29T04:08:40;5.57;;;1.80;;
50433;SDS011;36361;38.954;-9.002;2022-07-29T04:09:41;4.60;;;1.90;;
50433;SDS011;36361;38.954;-9.002;2022-07-29T04:10:42;4.10;;;1.92;;
50433;SDS011;36361;38.954;-9.002;2022-07-29T04:11:43;7.70;;;2.05;;
50433;SDS011;36361;38.954;-9.002;2022-07-29T04:12:45;5.80;;;2.08;;
50433;SDS011;36361;38.954;-9.002;2022-07-29T04:13:46;6.35;;;2.53;;
50433;SDS011;36361;38.954;-9.002;2022-07-29T04:14:46;6.43;;;1.83;;
50433;SDS011;36361;38.954;-9.002;2022-07-29T04:15:47;4.88;;;2.63;;
50433;SDS011;36361;38.954;-9.002;2022-07-29T04:16:48;6.22;;;1.98;;
50433;SDS011;36361;38.954;-9.002;2022-07-29T04:17:53;7.38;;;2.58;;
50433;SDS011;36361;38.954;-9.002;2022-07-29T04:18:54;5.07;;;2.13;;
50433;SDS011;36361;38.954;-9.002;2022-07-29T04:19:57;6.20;;;1.88;;
50433;SDS011;36361;38.954;-9.002;2022-07-29T04:20:58;7.35;;;2.15;;
50433;SDS011;36361;38.954;-9.002;2022-07-29T04:22:00;7.60;;;2.47;;
50433;SDS011;36361;38.954;-9.002;2022-07-29T04:23:01;6.90;;;2.55;;
50433;SDS011;36361;38.954;-9.002;2022-07-29T04:24:02;3.55;;;1.95;;
50433;SDS011;36361;38.954;-9.002;2022-07-29T04:25:03;4.55;;;1.90;;
50433;SDS011;36361;38.954;-9.002;2022-07-29T04:26:04;3.00;;;1.70;;
50433;SDS011;36361;38.954;-9.002;2022-07-29T04:27:05;8.07;;;1.85;;
50433;SDS011;36361;38.954;-9.002;2022-07-29T04:28:06;4.72;;;2.15;;
50433;SDS011;36361;38.954;-9.002;2022-07-29T04:29:08;4.40;;;2.00;;
50433;SDS011;36361;38.954;-9.002;2022-07-29T04:30:08;4.82;;;2.85;;
50433;SDS011;36361;38.954;-9.002;2022-07-29T04:31:10;5.65;;;2.15;;
50433;SDS011;36361;38.954;-9.002;2022-07-29T04:32:11;5.03;;;1.80;;
50433;SDS011;36361;38.954;-9.002;2022-07-29T04:33:12;3.90;;;1.70;;
50433;SDS011;36361;38.954;-9.002;2022-07-29T04:34:13;5.75;;;2.15;;
50433;SDS011;36361;38.954;-9.002;2022-07-29T04:35:14;7.38;;;2.35;;
50433;SDS011;36361;38.954;-9.002;2022-07-29T04:36:17;4.63;;;2.58;;
50433;SDS011;36361;38.954;-9.002;2022-07-29T04:37:18;6.97;;;2.40;;
50433;SDS011;36361;38.954;-9.002;2022-07-29T04:38:22;5.00;;;1.80;;
50433;SDS011;36361;38.954;-9.002;2022-07-29T04:39:23;5.35;;;1.90;;
50433;SDS011;36361;38.954;-9.002;2022-07-29T04:40:24;4.88;;;2.17;;
50433;SDS011;36361;38.954;-9.002;2022-07-29T04:41:25;4.78;;;1.98;;
50433;SDS011;36361;38.954;-9.002;2022-07-29T04:42:26;5.10;;;1.50;;
50433;SDS011;36361;38.954;-9.002;2022-07-29T04:43:26;4.53;;;2.35;;
50433;SDS011;36361;38.954;-9.002;2022-07-29T04:44:27;4.72;;;2.03;;
50433;SDS011;36361;38.954;-9.002;2022-07-29T04:45:28;6.75;;;2.33;;
50433;SDS011;36361;38.954;-9.002;2022-07-29T04:46:29;4.78;;;2.33;;
50433;SDS011;36361;38.954;-9.002;2022-07-29T04:47:30;5.20;;;2.22;;
50433;SDS011;36361;38.954;-9.002;2022-07-29T04:48:31;3.88;;;2.10;;
50433;SDS011;36361;38.954;-9.002;2022-07-29T04:49:31;5.88;;;2.40;;
50433;SDS011;36361;38.954;-9.002;2022-07-29T04:50:32;4.88;;;2.13;;
50433;SDS011;36361;38.954;-9.002;2022-07-29T04:51:33;9.40;;;2.45;;
50433;SDS011;36361;38.954;-9.002;2022-07-29T04:52:34;5.30;;;2.00;;
50433;SDS011;36361;38.954;-9.002;2022-07-29T04:53:35;4.45;;;2.05;;
50433;SDS011;36361;38.954;-9.002;2022-07-29T04:54:44;5.22;;;2.30;;
50433;SDS011;36361;38.954;-9.002;2022-07-29T04:55:45;5.70;;;2.20;;
50433;SDS011;36361;38.954;-9.002;2022-07-29T04:56:46;7.90;;;2.50;;
50433;SDS011;36361;38.954;-9.002;2022-07-29T04:57:47;5.93;;;2.28;;
50433;SDS011;36361;38.954;-9.002;2022-07-29T04:58:47;4.97;;;2.42;;
50433;SDS011;36361;38.954;-9.002;2022-07-29T04:59:48;4.78;;;1.67;;
50433;SDS011;36361;38.954;-9.002;2022-07-29T05:00:49;6.40;;;2.33;;
50433;SDS011;36361;38.954;-9.002;2022-07-29T05:01:51;5.95;;;2.15;;
50433;SDS011;36361;38.954;-9.002;2022-07-29T05:02:51;3.28;;;1.77;;
50433;SDS011;36361;38.954;-9.002;2022-07-29T05:03:52;6.55;;;1.88;;
50433;SDS011;36361;38.954;-9.002;2022-07-29T05:04:52;4.88;;;2.03;;
50433;SDS011;36361;38.954;-9.002;2022-07-29T05:05:53;5.47;;;2.20;;
50433;SDS011;36361;38.954;-9.002;2022-07-29T05:06:54;5.47;;;1.95;;
50433;SDS011;36361;38.954;-9.002;2022-07-29T05:07:55;5.57;;;2.13;;
50433;SDS011;36361;38.954;-9.002;2022-07-29T05:08:56;4.25;;;1.95;;
50433;SDS011;36361;38.954;-9.002;2022-07-29T05:09:57;6.00;;;2.10;;
50433;SDS011;36361;38.954;-9.002;2022-07-29T05:10:57;4.63;;;1.98;;
50433;SDS011;36361;38.954;-9.002;2022-07-29T05:11:58;6.43;;;2.20;;
50433;SDS011;36361;38.954;-9.002;2022-07-29T05:12:59;8.88;;;2.28;;
50433;SDS011;36361;38.954;-9.002;2022-07-29T05:14:00;5.40;;;2.10;;
50433;SDS011;36361;38.954;-9.002;2022-07-29T05:15:01;5.75;;;1.98;;
50433;SDS011;36361;38.954;-9.002;2022-07-29T05:16:01;5.88;;;2.20;;
50433;SDS011;36361;38.954;-9.002;2022-07-29T05:17:02;4.13;;;1.90;;
50433;SDS011;36361;38.954;-9.002;2022-07-29T05:18:03;5.95;;;2.15;;
50433;SDS011;36361;38.954;-9.002;2022-07-29T05:19:04;5.22;;;2.10;;
50433;SDS011;36361;38.954;-9.002;2022-07-29T05:20:05;3.97;;;2.17;;
50433;SDS011;36361;38.954;-9.002;2022-07-29T05:21:06;7.35;;;2.65;;
50433;SDS011;36361;38.954;-9.002;2022-07-29T05:22:07;3.35;;;1.80;;
50433;SDS011;36361;38.954;-9.002;2022-07-29T05:23:08;4.88;;;1.83;;
50433;SDS011;36361;38.954;-9.002;2022-07-29T05:24:09;8.38;;;3.10;;
50433;SDS011;36361;38.954;-9.002;2022-07-29T05:25:09;4.18;;;2.00;;
50433;SDS011;36361;38.954;-9.002;2022-07-29T05:26:10;4.55;;;2.30;;
50433;SDS011;36361;38.954;-9.002;2022-07-29T05:27:11;8.90;;;2.90;;
50433;SDS011;36361;38.954;-9.002;2022-07-29T05:28:11;6.05;;;1.83;;
50433;SDS011;36361;38.954;-9.002;2022-07-29T05:29:12;3.28;;;1.92;;
50433;SDS011;36361;38.954;-9.002;2022-07-29T05:30:13;8.02;;;2.95;;
50433;SDS011;36361;38.954;-9.002;2022-07-29T05:31:14;5.18;;;2.08;;
50433;SDS011;36361;38.954;-9.002;2022-07-29T05:32:14;5.78;;;1.77;;
50433;SDS011;36361;38.954;-9.002;2022-07-29T05:33:15;4.00;;;1.85;;
50433;SDS011;36361;38.954;-9.002;2022-07-29T05:34:16;4.13;;;1.90;;
50433;SDS011;36361;38.954;-9.002;2022-07-29T05:35:17;3.50;;;1.90;;
50433;SDS011;36361;38.954;-9.002;2022-07-29T05:36:17;5.47;;;2.25;;
50433;SDS011;36361;38.954;-9.002;2022-07-29T05:37:19;7.00;;;1.98;;
50433;SDS011;36361;38.954;-9.002;2022-07-29T05:38:20;5.35;;;2.03;;
50433;SDS011;36361;38.954;-9.002;2022-07-29T05:39:20;5.78;;;1.98;;
50433;SDS011;36361;38.954;-9.002;2022-07-29T05:40:22;3.47;;;2.55;;
50433;SDS011;36361;38.954;-9.002;2022-07-29T05:41:23;3.97;;;2.40;;
50433;SDS011;36361;38.954;-9.002;2022-07-29T05:42:24;7.07;;;2.45;;
50433;SDS011;36361;38.954;-9.002;2022-07-29T05:43:26;6.88;;;2.13;;
50433;SDS011;36361;38.954;-9.002;2022-07-29T05:44:28;5.65;;;2.22;;
50433;SDS011;36361;38.954;-9.002;2022-07-29T05:45:28;9.60;;;2.53;;
50433;SDS011;36361;38.954;-9.002;2022-07-29T05:46:29;5.57;;;2.00;;
50433;SDS011;36361;38.954;-9.002;2022-07-29T05:47:30;4.82;;;2.00;;
50433;SDS011;36361;38.954;-9.002;2022-07-29T05:48:33;5.70;;;2.42;;
50433;SDS011;36361;38.954;-9.002;2022-07-29T05:49:34;5.05;;;1.90;;
50433;SDS011;36361;38.954;-9.002;2022-07-29T05:50:37;4.47;;;1.52;;
50433;SDS011;36361;38.954;-9.002;2022-07-29T05:51:38;7.38;;;2.30;;
50433;SDS011;36361;38.954;-9.002;2022-07-29T05:52:39;3.88;;;1.85;;
50433;SDS011;36361;38.954;-9.002;2022-07-29T05:53:40;5.85;;;2.33;;
50433;SDS011;36361;38.954;-9.002;2022-07-29T05:54:40;6.97;;;2.22;;
50433;SDS011;36361;38.954;-9.002;2022-07-29T05:55:44;5.75;;;2.20;;
50433;SDS011;36361;38.954;-9.002;2022-07-29T05:56:45;3.08;;;1.80;;
50433;SDS011;36361;38.954;-9.002;2022-07-29T05:57:45;7.13;;;2.42;;
50433;SDS011;36361;38.954;-9.002;2022-07-29T05:58:46;4.72;;;2.15;;
50433;SDS011;36361;38.954;-9.002;2022-07-29T05:59:47;4.72;;;2.38;;
50433;SDS011;36361;38.954;-9.002;2022-07-29T06:00:48;5.82;;;2.20;;
50433;SDS011;36361;38.954;-9.002;2022-07-29T06:01:49;5.72;;;2.40;;
50433;SDS011;36361;38.954;-9.002;2022-07-29T06:02:50;5.63;;;2.30;;
50433;SDS011;36361;38.954;-9.002;2022-07-29T06:03:50;5.82;;;2.13;;
50433;SDS011;36361;38.954;-9.002;2022-07-29T06:04:51;6.28;;;2.60;;
50433;SDS011;36361;38.954;-9.002;2022-07-29T06:05:51;6.55;;;2.67;;
50433;SDS011;36361;38.954;-9.002;2022-07-29T06:06:52;4.95;;;2.22;;
50433;SDS011;36361;38.954;-9.002;2022-07-29T06:07:53;5.82;;;2.65;;
50433;SDS011;36361;38.954;-9.002;2022-07-29T06:08:54;6.13;;;2.38;;
50433;SDS011;36361;38.954;-9.002;2022-07-29T06:09:54;4.75;;;2.03;;
50433;SDS011;36361;38.954;-9.002;2022-07-29T06:10:55;4.68;;;1.80;;
50433;SDS011;36361;38.954;-9.002;2022-07-29T06:11:56;4.30;;;2.28;;
50433;SDS011;36361;38.954;-9.002;2022-07-29T06:12:58;3.78;;;2.00;;
50433;SDS011;36361;38.954;-9.002;2022-07-29T06:13:58;4.43;;;2.97;;
50433;SDS011;36361;38.954;-9.002;2022-07-29T06:14:59;5.50;;;1.90;;
50433;SDS011;36361;38.954;-9.002;2022-07-29T06:15:59;8.38;;;2.22;;
50433;SDS011;36361;38.954;-9.002;2022-07-29T06:17:01;4.13;;;2.25;;
50433;SDS011;36361;38.954;-9.002;2022-07-29T06:18:05;4.15;;;1.85;;
50433;SDS011;36361;38.954;-9.002;2022-07-29T06:19:12;4.40;;;2.05;;
50433;SDS011;36361;38.954;-9.002;2022-07-29T06:20:13;5.45;;;2.22;;
50433;SDS011;36361;38.954;-9.002;2022-07-29T06:21:13;5.22;;;1.77;;
50433;SDS011;36361;38.954;-9.002;2022-07-29T06:22:15;5.00;;;1.95;;
50433;SDS011;36361;38.954;-9.002;2022-07-29T06:23:17;4.32;;;2.00;;
50433;SDS011;36361;38.954;-9.002;2022-07-29T06:24:18;3.53;;;1.98;;
50433;SDS011;36361;38.954;-9.002;2022-07-29T06:25:19;5.85;;;1.92;;
50433;SDS011;36361;38.954;-9.002;2022-07-29T06:26:20;7.15;;;2.25;;
50433;SDS011;36361;38.954;-9.002;2022-07-29T06:27:20;5.10;;;2.58;;
50433;SDS011;36361;38.954;-9.002;2022-07-29T06:28:21;4.82;;;2.35;;
50433;SDS011;36361;38.954;-9.002;2022-07-29T06:29:22;2.67;;;1.80;;
50433;SDS011;36361;38.954;-9.002;2022-07-29T06:30:23;6.22;;;2.80;;